KSAT/SAT METAR and TAF weather

Enter ICAO airport designator
Station Type Date Time Source
KSAT METAR 2020/07/15 04:51 UTC NOAA

KSAT 150451Z 16012KT 10SM CLR 28/23 A2994 RMK AO2 SLP119 T02830228 $


Station Type Date Time Source
KSAT Decoded METAR 2020/07/15 04:51 UTC NOAA

SAN ANTONIO INTERNATIONAL AIRPORT , TX, United States (KSAT) 29-32N 098-28W 243M
Jul 15, 2020 - 12:51 AM EDT / 2020.07.15 0451 UTC
Wind: from the SSE (160 degrees) at 14 MPH (12 KT):0
Visibility: 10 mile(s):0
Sky conditions: clear
Temperature: 82.9 F (28.3 C)
Dew Point: 73.0 F (22.8 C)
Relative Humidity: 72%
Pressure (altimeter): 29.94 in. Hg (1013 hPa)
ob: KSAT 150451Z 16012KT 10SM CLR 28/23 A2994 RMK AO2 SLP119 T02830228
cycle: 5

Station Type Date Time Source
KSAT TAF 2020/07/15 06:30 UTC NOAA

TAF KSAT 150527Z 1506/1612 16012KT P6SM SKC
FM151000 18010KT P6SM BKN012
FM151400 18014KT P6SM FEW150
FM152300 14013KT P6SM SKC

Example: see airport list